Killdeer, North Dakota
Current Conditions -  °F | °C
As of 8:15 PM on Thursday 18 Dec 2014 (Local Time) from KS25 Reporting Station
Moderate Fog Moderate Fog  
Wind Chill: 27°   Ceiling: 100
Heat Index: 27°   Visibility: 0.5mi
Dew Point: 27°   Wind: 3mph
Humidity: 100%   Direction: 160°SSE
Pressure: 29.91"   Gusts: NA
Location:  47.37°N, 102.75°W
Report Text: KS25 190315Z AUTO 16003KT 1/2SM FZFG OVC001 M03/M03 A2991 RMK AO2
Loading
Personal Weather Stations






























Interactive Weather Map New forecast layout! Learn more

10-Day Weather Forecast

Advertisements
Track Severe Weather on mobile